Time;durP1;ratioP1;P1;durP2;ratioP2;P2;SDS_P1;SDS_P2;PMS_P1;PMS_P2;Temp;Humidity;BMP_temperature;BMP_pressure;BME280_temperature;BME280_humidity;BME280_pressure;Samples;Min_cycle;Max_cycle;Signal;HPM_P1;HPM_P2
2021/01/23 00:00:39;;;;;;;7.03;3.42;;;17.00;61.10;;;;;;5092652;28;20024;-60
2021/01/23 00:03:05;;;;;;;9.35;3.70;;;17.10;61.10;;;;;;5092188;28;20055;-59
2021/01/23 00:05:31;;;;;;;6.25;3.40;;;17.00;61.00;;;;;;5094475;28;20028;-60
2021/01/23 00:08:01;;;;;;;7.43;3.47;;;17.00;61.20;;;;;;5104024;28;20156;-60
2021/01/23 00:10:30;;;;;;;7.78;3.20;;;17.00;61.00;;;;;;5093607;28;20120;-57
2021/01/23 00:12:56;;;;;;;7.60;3.90;;;16.90;61.20;;;;;;5103918;28;20035;-60
2021/01/23 00:15:22;;;;;;;7.72;3.53;;;17.00;61.10;;;;;;5094020;28;20035;-59
2021/01/23 00:17:48;;;;;;;7.95;3.60;;;17.00;61.00;;;;;;5090214;28;20039;-61
2021/01/23 00:20:14;;;;;;;7.13;3.20;;;16.90;61.00;;;;;;5075598;28;20039;-60
2021/01/23 00:22:40;;;;;;;6.72;3.00;;;16.90;61.00;;;;;;5091620;28;20099;-61
2021/01/23 00:25:06;;;;;;;7.68;3.40;;;16.90;61.00;;;;;;5077416;28;20124;-58
2021/01/23 00:27:31;;;;;;;5.75;3.05;;;16.90;61.50;;;;;;5075059;28;20043;-59
2021/01/23 00:29:58;;;;;;;6.30;3.00;;;17.00;61.10;;;;;;5084063;28;20370;-60
2021/01/23 00:32:24;;;;;;;7.05;3.30;;;16.90;61.00;;;;;;5091533;28;20491;-60
2021/01/23 00:34:50;;;;;;;9.70;3.53;;;16.90;61.00;;;;;;5076263;28;20123;-60
2021/01/23 00:37:15;;;;;;;6.38;2.95;;;16.80;61.00;;;;;;5072545;28;20111;-60
2021/01/23 00:39:41;;;;;;;6.10;2.95;;;16.80;61.00;;;;;;5086479;28;20032;-59
2021/01/23 00:42:06;;;;;;;8.40;3.22;;;16.80;61.00;;;;;;5078727;28;20373;-60
2021/01/23 00:44:32;;;;;;;7.85;3.05;;;16.80;61.00;;;;;;5093003;28;20115;-57
2021/01/23 00:46:57;;;;;;;7.35;3.13;;;16.70;61.00;;;;;;5080565;28;20093;-59
2021/01/23 00:49:23;;;;;;;6.18;2.90;;;16.70;61.20;;;;;;5080889;28;20039;-58
2021/01/23 00:51:49;;;;;;;6.43;3.13;;;16.70;61.00;;;;;;5089537;28;20485;-59
2021/01/23 00:54:15;;;;;;;7.93;3.33;;;16.70;60.80;;;;;;5081899;28;20024;-59
2021/01/23 00:56:40;;;;;;;7.50;3.38;;;16.70;60.90;;;;;;5092761;28;20397;-60
2021/01/23 00:59:06;;;;;;;6.50;3.03;;;16.70;60.90;;;;;;5080511;28;20020;-59
2021/01/23 01:01:31;;;;;;;8.68;3.42;;;16.70;60.60;;;;;;5079742;28;20492;-58
2021/01/23 01:03:57;;;;;;;6.82;3.22;;;16.80;60.50;;;;;;5080935;28;20688;-58
2021/01/23 01:06:22;;;;;;;8.07;3.50;;;16.70;60.40;;;;;;5072255;28;20037;-62
2021/01/23 01:08:48;;;;;;;5.13;2.83;;;16.80;60.30;;;;;;5073106;28;20445;-60
2021/01/23 01:11:13;;;;;;;6.80;2.90;;;16.70;60.40;;;;;;5088354;28;20028;-60
2021/01/23 01:13:39;;;;;;;6.75;3.60;;;16.70;60.50;;;;;;5091872;28;20089;-60
2021/01/23 01:16:05;;;;;;;6.85;2.95;;;16.70;60.40;;;;;;5087390;28;20033;-60
2021/01/23 01:18:30;;;;;;;8.02;3.50;;;16.60;60.50;;;;;;5090893;28;20089;-59
2021/01/23 01:20:56;;;;;;;6.55;2.80;;;16.60;60.50;;;;;;5073095;28;20112;-61
2021/01/23 01:23:21;;;;;;;6.43;3.50;;;16.60;60.30;;;;;;5076452;28;20367;-60
2021/01/23 01:25:47;;;;;;;6.07;3.10;;;16.60;60.40;;;;;;5089310;28;20046;-61
2021/01/23 01:28:12;;;;;;;6.93;3.38;;;16.60;60.40;;;;;;5081613;28;20107;-59
2021/01/23 01:30:38;;;;;;;6.13;3.47;;;16.60;60.90;;;;;;5092364;28;20027;-59
2021/01/23 01:33:04;;;;;;;6.07;3.30;;;16.60;60.20;;;;;;5090022;28;20032;-58
2021/01/23 01:35:30;;;;;;;5.85;3.20;;;16.60;60.20;;;;;;5072080;28;20397;-60
2021/01/23 01:37:55;;;;;;;6.93;3.35;;;16.60;60.20;;;;;;5075064;28;20032;-62
2021/01/23 01:40:21;;;;;;;7.90;3.72;;;16.60;60.30;;;;;;5089916;28;20035;-59
2021/01/23 01:42:46;;;;;;;7.72;3.30;;;16.50;60.30;;;;;;5083920;28;20038;-59
2021/01/23 01:45:12;;;;;;;6.75;3.42;;;16.50;60.30;;;;;;5087152;28;20499;-60
2021/01/23 01:47:40;;;;;;;6.15;3.30;;;16.60;60.10;;;;;;5090573;28;20389;-61
2021/01/23 01:50:06;;;;;;;6.53;3.80;;;16.50;60.20;;;;;;5091085;28;20129;-58
2021/01/23 01:52:31;;;;;;;6.93;3.03;;;16.50;60.30;;;;;;5079986;28;20103;-59
2021/01/23 01:54:58;;;;;;;7.05;3.67;;;16.50;60.30;;;;;;5073458;28;20102;-59
2021/01/23 01:57:23;;;;;;;8.07;3.40;;;16.50;60.30;;;;;;5089131;28;20040;-59
2021/01/23 01:59:49;;;;;;;6.90;3.50;;;16.40;60.30;;;;;;5079195;28;20039;-59
2021/01/23 02:02:33;;;;;;;9.13;3.80;;;16.40;60.20;;;;;;5104268;28;20035;-60
2021/01/23 02:05:11;;;;;;;7.82;3.50;;;16.40;60.20;;;;;;5097891;28;20028;-60
2021/01/23 02:08:01;;;;;;;7.60;3.40;;;16.40;60.20;;;;;;5091607;28;20485;-58
2021/01/23 02:10:47;;;;;;;5.55;3.03;;;16.30;60.30;;;;;;5075302;28;20107;-60
2021/01/23 02:13:28;;;;;;;6.45;3.30;;;16.30;60.30;;;;;;5071862;28;20024;-59
2021/01/23 02:16:04;;;;;;;6.60;3.15;;;16.30;60.50;;;;;;5085359;28;20389;-59
2021/01/23 02:18:38;;;;;;;5.53;3.10;;;16.30;60.70;;;;;;5074375;28;20028;-61
2021/01/23 02:21:25;;;;;;;6.75;3.22;;;16.30;60.50;;;;;;5071762;28;20028;-59
2021/01/23 02:23:52;;;;;;;6.45;3.20;;;16.30;60.60;;;;;;5081101;28;20032;-60
2021/01/23 02:26:56;;;;;;;6.57;3.50;;;16.30;60.60;;;;;;5086752;28;20032;-59
2021/01/23 02:29:22;;;;;;;6.55;3.30;;;16.30;60.70;;;;;;5078510;28;20032;-60
2021/01/23 02:32:08;;;;;;;6.68;3.55;;;16.20;60.60;;;;;;5080406;28;20557;-59
2021/01/23 02:34:35;;;;;;;7.20;3.70;;;16.30;60.60;;;;;;5087700;28;20028;-59
2021/01/23 02:37:01;;;;;;;7.75;3.95;;;16.20;60.40;;;;;;5089463;28;20032;-60
2021/01/23 02:39:29;;;;;;;6.55;3.45;;;16.20;60.70;;;;;;5082793;28;20382;-59
2021/01/23 02:41:55;;;;;;;6.75;3.50;;;16.20;60.50;;;;;;5070329;28;20020;-61
2021/01/23 02:44:21;;;;;;;6.82;3.63;;;16.20;60.50;;;;;;5075420;28;20035;-60
2021/01/23 02:46:50;;;;;;;6.82;3.53;;;16.20;60.60;;;;;;5073950;28;20496;-60
2021/01/23 02:49:16;;;;;;;6.30;3.45;;;16.10;60.70;;;;;;5081601;28;20481;-58
2021/01/23 02:51:54;;;;;;;6.70;3.63;;;16.10;60.60;;;;;;5087691;28;20030;-60
2021/01/23 02:54:49;;;;;;;8.32;3.97;;;16.10;60.60;;;;;;5087786;28;20024;-60
2021/01/23 02:57:15;;;;;;;6.18;3.45;;;16.10;60.60;;;;;;5071678;28;20028;-61
2021/01/23 02:59:44;;;;;;;6.53;3.95;;;16.10;60.60;;;;;;5084443;28;20028;-60
2021/01/23 03:02:12;;;;;;;8.23;3.75;;;16.10;60.60;;;;;;5073958;28;20029;-59
2021/01/23 03:04:40;;;;;;;6.60;4.15;;;16.10;60.50;;;;;;5068755;28;20119;-59
2021/01/23 03:07:06;;;;;;;7.57;4.03;;;16.10;60.40;;;;;;5070421;28;20016;-60
2021/01/23 03:09:32;;;;;;;8.10;3.70;;;16.10;60.50;;;;;;5087628;28;20156;-59
2021/01/23 03:11:57;;;;;;;6.68;4.10;;;16.10;60.60;;;;;;5075653;28;20058;-60
2021/01/23 03:14:23;;;;;;;7.50;4.00;;;16.00;60.50;;;;;;5064576;28;20027;-61
2021/01/23 03:16:51;;;;;;;7.90;3.97;;;16.00;60.40;;;;;;5070676;28;20049;-59
2021/01/23 03:19:17;;;;;;;7.18;3.92;;;16.00;60.50;;;;;;5082877;28;20027;-59
2021/01/23 03:21:43;;;;;;;8.70;4.45;;;16.00;60.50;;;;;;5071017;28;20025;-59
2021/01/23 03:24:09;;;;;;;8.85;4.22;;;16.00;60.30;;;;;;5068748;28;20707;-59
2021/01/23 03:26:35;;;;;;;6.13;3.63;;;16.00;60.30;;;;;;5080622;28;20028;-59
2021/01/23 03:29:01;;;;;;;8.98;4.00;;;15.90;60.30;;;;;;5083952;28;20137;-60
2021/01/23 03:31:27;;;;;;;6.72;3.53;;;15.90;60.30;;;;;;5069982;28;20021;-61
2021/01/23 03:33:52;;;;;;;7.30;4.00;;;15.90;60.30;;;;;;5081352;28;20028;-60
2021/01/23 03:36:18;;;;;;;8.35;4.07;;;15.90;60.00;;;;;;5079571;28;20024;-59
2021/01/23 03:38:43;;;;;;;7.03;3.83;;;15.90;60.10;;;;;;5082187;28;20401;-62
2021/01/23 03:41:09;;;;;;;8.35;4.25;;;15.90;60.20;;;;;;5069918;28;20413;-59
2021/01/23 03:43:34;;;;;;;8.25;3.85;;;15.90;60.20;;;;;;5075078;28;20061;-60
2021/01/23 03:46:00;;;;;;;7.05;3.70;;;15.90;60.00;;;;;;5090173;28;20028;-61
2021/01/23 03:48:25;;;;;;;6.47;4.00;;;15.90;60.00;;;;;;5081104;28;20024;-60
2021/01/23 03:50:51;;;;;;;8.93;4.20;;;15.90;60.10;;;;;;5081000;28;20035;-58
2021/01/23 03:53:16;;;;;;;8.80;4.32;;;15.90;60.00;;;;;;5087431;28;20020;-60
2021/01/23 03:55:42;;;;;;;9.98;3.78;;;15.90;60.10;;;;;;5081822;28;20086;-59
2021/01/23 03:58:07;;;;;;;7.75;4.25;;;15.90;60.00;;;;;;5070108;28;20032;-58
2021/01/23 04:00:33;;;;;;;8.60;4.53;;;15.90;60.00;;;;;;5070044;28;20108;-60
2021/01/23 04:02:58;;;;;;;7.43;3.97;;;15.90;60.00;;;;;;5068460;28;20048;-58
2021/01/23 04:05:24;;;;;;;7.95;3.80;;;15.80;60.00;;;;;;5070820;28;20508;-61
2021/01/23 04:07:49;;;;;;;6.85;3.75;;;15.80;59.90;;;;;;5070057;28;20383;-59
2021/01/23 04:10:15;;;;;;;7.22;3.90;;;15.80;60.10;;;;;;5070068;28;20025;-58
2021/01/23 04:12:41;;;;;;;6.20;3.95;;;15.80;60.10;;;;;;5071078;28;20101;-59
2021/01/23 04:15:07;;;;;;;8.02;3.92;;;15.80;60.00;;;;;;5074510;28;20024;-61
2021/01/23 04:17:32;;;;;;;6.95;3.85;;;15.80;60.00;;;;;;5072164;28;20021;-60
2021/01/23 04:19:58;;;;;;;7.30;3.83;;;15.80;60.00;;;;;;5072056;28;20131;-60
2021/01/23 04:22:23;;;;;;;7.57;4.30;;;15.80;59.90;;;;;;5072997;28;20630;-58
2021/01/23 04:24:49;;;;;;;6.68;4.20;;;15.70;59.90;;;;;;5086419;28;20090;-59
2021/01/23 04:27:15;;;;;;;6.57;3.85;;;15.70;60.00;;;;;;5092147;28;20020;-61
2021/01/23 04:29:40;;;;;;;7.47;3.88;;;15.70;60.00;;;;;;5092214;28;20427;-61
2021/01/23 04:32:06;;;;;;;7.85;4.32;;;15.70;59.80;;;;;;5091911;28;20028;-60
2021/01/23 04:34:31;;;;;;;6.30;3.95;;;15.70;59.90;;;;;;5071279;28;20020;-59
2021/01/23 04:36:57;;;;;;;8.73;4.45;;;15.70;60.00;;;;;;5072972;28;20390;-60
2021/01/23 04:39:22;;;;;;;7.20;4.30;;;15.60;60.00;;;;;;5071698;28;20107;-60
2021/01/23 04:41:48;;;;;;;7.85;4.38;;;15.60;60.10;;;;;;5071411;28;20021;-59
2021/01/23 04:44:14;;;;;;;7.95;4.13;;;15.70;60.10;;;;;;5078556;28;20100;-61
2021/01/23 04:46:39;;;;;;;6.75;4.20;;;15.60;60.00;;;;;;5092924;28;20086;-59
2021/01/23 04:49:05;;;;;;;7.90;3.88;;;15.60;60.00;;;;;;5092934;28;20472;-61
2021/01/23 04:51:30;;;;;;;7.13;4.20;;;15.60;60.00;;;;;;5090358;28;20122;-59
2021/01/23 04:53:56;;;;;;;7.20;3.88;;;15.50;60.00;;;;;;5072653;28;20029;-60
2021/01/23 04:56:21;;;;;;;7.07;4.07;;;15.60;60.00;;;;;;5072658;28;20024;-60
2021/01/23 04:58:47;;;;;;;7.75;4.05;;;15.60;60.00;;;;;;5072672;28;20657;-60
2021/01/23 05:01:14;;;;;;;7.45;3.83;;;15.60;59.80;;;;;;5072284;28;20089;-58
2021/01/23 05:03:59;;;;;;;6.93;3.92;;;15.60;59.90;;;;;;5072743;28;20107;-59
2021/01/23 05:06:25;;;;;;;6.72;4.13;;;15.50;59.90;;;;;;5075819;28;20031;-60
2021/01/23 05:08:51;;;;;;;7.97;4.03;;;15.60;60.00;;;;;;5082784;28;20035;-60
2021/01/23 05:11:17;;;;;;;6.75;3.88;;;15.60;60.00;;;;;;5092316;28;20043;-61
2021/01/23 05:14:04;;;;;;;6.75;4.28;;;15.60;59.90;;;;;;5078171;28;20056;-60
2021/01/23 05:16:29;;;;;;;7.60;3.88;;;15.60;59.80;;;;;;5070686;28;20028;-60
2021/01/23 05:19:01;;;;;;;7.38;3.95;;;15.50;59.60;;;;;;5074789;28;20035;-60
2021/01/23 05:21:31;;;;;;;11.82;5.03;;;15.50;59.90;;;;;;5092330;28;20048;-61
2021/01/23 05:24:12;;;;;;;9.85;4.38;;;15.60;59.90;;;;;;5092471;28;20020;-58
2021/01/23 05:26:40;;;;;;;7.53;4.47;;;15.50;59.70;;;;;;5077491;28;20028;-61
2021/01/23 05:29:11;;;;;;;8.23;4.38;;;15.60;59.60;;;;;;5078860;28;20116;-62
2021/01/23 05:31:38;;;;;;;8.02;4.00;;;15.60;59.40;;;;;;5067411;28;20033;-60
2021/01/23 05:34:26;;;;;;;9.10;4.05;;;15.70;59.20;;;;;;5066894;28;20063;-61
2021/01/23 05:36:52;;;;;;;7.75;4.00;;;15.70;58.90;;;;;;5080215;28;20068;-60
2021/01/23 05:39:18;;;;;;;7.38;3.78;;;15.70;59.10;;;;;;5077915;28;20063;-59
2021/01/23 05:42:05;;;;;;;7.18;4.00;;;15.60;59.40;;;;;;5078425;28;20066;-61
2021/01/23 05:44:31;;;;;;;6.32;3.65;;;15.70;59.00;;;;;;5064173;28;20056;-59
2021/01/23 05:46:56;;;;;;;12.00;4.00;;;15.70;58.80;;;;;;5062339;28;20491;-59
2021/01/23 05:49:22;;;;;;;10.43;4.05;;;15.80;59.10;;;;;;5080218;28;20043;-60
2021/01/23 05:51:47;;;;;;;10.68;3.92;;;15.80;59.00;;;;;;5100253;27;20020;-60
2021/01/23 05:54:13;;;;;;;10.38;3.80;;;15.90;58.60;;;;;;5085126;28;20016;-58
2021/01/23 05:56:40;;;;;;;6.88;3.50;;;16.00;58.30;;;;;;5086299;28;20077;-58
2021/01/23 05:59:06;;;;;;;7.10;3.58;;;16.10;58.10;;;;;;5079397;28;20032;-59
2021/01/23 06:01:33;;;;;;;7.63;3.47;;;16.20;57.80;;;;;;5070118;28;20067;-59
2021/01/23 06:03:59;;;;;;;7.15;3.70;;;16.20;57.80;;;;;;5065695;28;20033;-59
2021/01/23 06:06:42;;;;;;;6.93;3.63;;;16.10;58.00;;;;;;5065590;28;20039;-59
2021/01/23 06:09:07;;;;;;;8.70;3.55;;;16.00;58.30;;;;;;5072683;28;20934;-59
2021/01/23 06:11:33;;;;;;;6.72;3.42;;;16.00;58.70;;;;;;5072357;28;20107;-58
2021/01/23 06:13:58;;;;;;;7.90;3.55;;;16.00;58.90;;;;;;5067369;28;20036;-61
2021/01/23 06:16:33;;;;;;;8.95;3.50;;;16.10;58.90;;;;;;5078226;28;20072;-59
2021/01/23 06:19:04;;;;;;;7.82;3.35;;;16.20;58.90;;;;;;5068649;28;20060;-61
2021/01/23 06:21:42;;;;;;;8.65;3.50;;;16.30;58.50;;;;;;5076111;28;20510;-60
2021/01/23 06:24:08;;;;;;;9.85;3.40;;;16.30;58.60;;;;;;5084220;28;20035;-58
2021/01/23 06:26:54;;;;;;;10.80;4.35;;;16.40;58.00;;;;;;5086156;28;20507;-59
2021/01/23 06:29:46;;;;;;;11.02;4.50;;;16.40;58.10;;;;;;5065239;28;20033;-62
2021/01/23 06:32:14;;;;;;;9.88;4.97;;;16.10;57.50;;;;;;5066733;28;20580;-62
2021/01/23 06:34:57;;;;;;;15.80;7.20;;;16.00;56.40;;;;;;5070260;28;20099;-61
2021/01/23 06:37:33;;;;;;;12.63;5.85;;;16.20;55.50;;;;;;5070579;28;20023;-63
2021/01/23 06:40:12;;;;;;;11.10;5.55;;;16.30;55.30;;;;;;5070891;28;20074;-61
2021/01/23 06:42:40;;;;;;;14.75;5.70;;;16.30;55.30;;;;;;5076207;28;20393;-62
2021/01/23 06:45:17;;;;;;;12.90;5.32;;;16.30;55.40;;;;;;5070493;28;20039;-61
2021/01/23 06:47:52;;;;;;;10.07;4.65;;;16.20;55.80;;;;;;5070728;28;20043;-61
2021/01/23 06:50:33;;;;;;;10.38;4.63;;;16.30;56.00;;;;;;5070831;28;20032;-61
2021/01/23 06:53:00;;;;;;;10.05;5.40;;;16.30;56.20;;;;;;5069023;28;20111;-61
2021/01/23 06:55:47;;;;;;;11.77;4.97;;;16.30;56.50;;;;;;5070596;28;20016;-62
2021/01/23 06:58:25;;;;;;;10.43;4.68;;;16.40;56.80;;;;;;5069314;28;20025;-62
2021/01/23 07:00:54;;;;;;;7.25;3.85;;;16.30;56.90;;;;;;5069225;28;20029;-62
2021/01/23 07:03:21;;;;;;;10.23;4.07;;;16.30;57.20;;;;;;5069285;28;20016;-61
2021/01/23 07:05:53;;;;;;;8.80;4.10;;;16.30;57.30;;;;;;5068985;28;20079;-63
2021/01/23 07:08:24;;;;;;;7.32;3.85;;;16.40;57.60;;;;;;5070660;28;20503;-62
2021/01/23 07:11:10;;;;;;;8.38;3.72;;;16.40;57.80;;;;;;5070264;28;20631;-62
2021/01/23 07:13:37;;;;;;;8.10;4.15;;;16.40;57.90;;;;;;5069526;28;20048;-60
2021/01/23 07:16:04;;;;;;;8.00;3.75;;;16.40;58.00;;;;;;5081025;28;20093;-62
2021/01/23 07:18:30;;;;;;;6.88;3.65;;;16.40;58.00;;;;;;5085340;28;20032;-63
2021/01/23 07:20:55;;;;;;;7.93;3.92;;;16.40;58.00;;;;;;5078403;28;20024;-63
2021/01/23 07:23:21;;;;;;;7.55;3.60;;;16.50;58.10;;;;;;5079310;28;20029;-62
2021/01/23 07:25:48;;;;;;;6.63;3.30;;;16.40;58.20;;;;;;5075452;28;20028;-63
2021/01/23 07:28:20;;;;;;;6.43;3.47;;;16.50;58.20;;;;;;5070958;28;20389;-61
2021/01/23 07:30:46;;;;;;;;;;;16.50;58.20;;;;;;5070992;28;20036;-60
2021/01/23 07:33:12;;;;;;;7.57;3.38;;;16.50;58.20;;;;;;5070032;28;20328;-62
2021/01/23 07:35:39;;;;;;;7.13;3.40;;;16.50;58.10;;;;;;5069073;28;20488;-63
2021/01/23 07:38:05;;;;;;;8.43;3.47;;;16.50;58.10;;;;;;5068892;28;20052;-62
2021/01/23 07:40:36;;;;;;;6.88;3.20;;;16.50;58.20;;;;;;5069031;28;20035;-59
2021/01/23 07:43:05;;;;;;;8.80;3.25;;;16.50;58.20;;;;;;5070069;28;20032;-60
2021/01/23 07:45:32;;;;;;;6.93;3.13;;;16.50;58.20;;;;;;5068799;28;20028;-60
2021/01/23 07:48:07;;;;;;;8.25;3.20;;;16.50;57.90;;;;;;5072136;28;20025;-62
2021/01/23 07:50:43;;;;;;;10.13;3.65;;;16.50;58.30;;;;;;5074150;28;20047;-62
2021/01/23 07:53:20;;;;;;;9.90;3.28;;;16.50;59.00;;;;;;5073861;28;20405;-60
2021/01/23 07:55:46;;;;;;;9.18;3.60;;;16.50;59.40;;;;;;5073858;28;20109;-61
2021/01/23 07:58:13;;;;;;;10.15;4.40;;;16.50;59.90;;;;;;5073730;28;20505;-62
2021/01/23 08:00:39;;;;;;;17.08;4.32;;;16.50;60.00;;;;;;5073538;28;20545;-61
2021/01/23 08:03:06;;;;;;;19.25;4.93;;;16.50;60.10;;;;;;5072076;28;20120;-62
2021/01/23 08:05:51;;;;;;;18.33;5.15;;;16.60;60.20;;;;;;5073481;28;20504;-60
2021/01/23 08:08:33;;;;;;;19.70;5.93;;;16.60;60.50;;;;;;5073598;28;20024;-61
2021/01/23 08:11:00;;;;;;;14.38;6.70;;;16.50;61.10;;;;;;5073362;28;20017;-61
2021/01/23 08:13:28;;;;;;;13.68;4.82;;;16.50;60.80;;;;;;5073437;28;20108;-62
2021/01/23 08:16:10;;;;;;;18.08;5.05;;;16.50;60.90;;;;;;5072193;28;20394;-61
2021/01/23 08:18:36;;;;;;;13.82;5.20;;;16.50;61.20;;;;;;5072095;28;20025;-58
2021/01/23 08:21:01;;;;;;;9.63;3.97;;;16.60;61.30;;;;;;5073139;28;20020;-61
2021/01/23 08:23:33;;;;;;;14.43;4.45;;;16.60;60.90;;;;;;5073318;28;20032;-62
2021/01/23 08:25:59;;;;;;;13.30;4.80;;;16.50;60.80;;;;;;5071797;28;20111;-60
2021/01/23 08:28:42;;;;;;;10.82;4.00;;;16.60;60.60;;;;;;5073386;28;20048;-61
2021/01/23 08:31:18;;;;;;;8.13;4.15;;;16.60;60.50;;;;;;5073081;28;20420;-62
2021/01/23 08:33:44;;;;;;;14.38;4.30;;;16.60;60.50;;;;;;5073402;28;20024;-60
2021/01/23 08:36:10;;;;;;;9.82;3.92;;;16.50;60.60;;;;;;5072952;28;20025;-61
2021/01/23 08:38:36;;;;;;;11.52;3.95;;;16.60;60.50;;;;;;5073082;28;20067;-61
2021/01/23 08:41:03;;;;;;;11.93;3.60;;;16.50;60.60;;;;;;5075570;28;20501;-61
2021/01/23 08:43:29;;;;;;;9.38;4.07;;;16.60;60.50;;;;;;5093317;28;20515;-61
2021/01/23 08:45:55;;;;;;;9.48;3.72;;;16.60;60.60;;;;;;5090048;28;20069;-61
2021/01/23 08:48:21;;;;;;;10.35;3.38;;;16.50;60.50;;;;;;5093098;28;20032;-60
2021/01/23 08:50:46;;;;;;;11.50;4.20;;;16.50;60.40;;;;;;5091703;28;20084;-59
2021/01/23 08:53:12;;;;;;;9.50;3.47;;;16.60;60.50;;;;;;5092771;28;20020;-62
2021/01/23 08:55:37;;;;;;;10.40;3.55;;;16.50;60.10;;;;;;5092942;28;20036;-61
2021/01/23 08:58:03;;;;;;;10.25;3.80;;;16.50;60.60;;;;;;5092656;28;20044;-61
2021/01/23 09:00:28;;;;;;;7.93;3.30;;;16.50;60.30;;;;;;5091550;28;20362;-63
2021/01/23 09:02:54;;;;;;;7.47;3.10;;;16.50;60.50;;;;;;5092649;28;20028;-61
2021/01/23 09:05:19;;;;;;;8.15;3.35;;;16.50;60.50;;;;;;5092577;28;20115;-64
2021/01/23 09:07:45;;;;;;;6.78;3.47;;;16.40;60.20;;;;;;5091452;28;20537;-60
2021/01/23 09:10:11;;;;;;;10.48;3.55;;;16.50;60.30;;;;;;5092782;28;20020;-61
2021/01/23 09:12:38;;;;;;;7.53;2.95;;;16.40;60.40;;;;;;5091061;28;20216;-61
2021/01/23 09:15:06;;;;;;;7.70;3.00;;;16.50;60.00;;;;;;5092500;28;20032;-62
2021/01/23 09:17:31;;;;;;;10.77;3.47;;;16.50;60.00;;;;;;5092500;28;20024;-60
2021/01/23 09:19:57;;;;;;;170.88;13.43;;;16.50;59.90;;;;;;5091128;28;20030;-60
2021/01/23 09:22:23;;;;;;;230.80;17.50;;;16.50;60.00;;;;;;5092489;28;20023;-62
2021/01/23 09:24:48;;;;;;;142.38;10.82;;;16.60;59.90;;;;;;5090919;28;20031;-62
2021/01/23 09:27:14;;;;;;;91.05;9.20;;;16.60;60.00;;;;;;5092436;28;20370;-62
2021/01/23 09:29:39;;;;;;;85.45;7.32;;;16.60;59.50;;;;;;5092278;28;20504;-60
2021/01/23 09:32:06;;;;;;;74.40;8.75;;;16.60;60.10;;;;;;5092028;28;20028;-63
2021/01/23 09:34:33;;;;;;;66.22;8.18;;;16.50;60.60;;;;;;5092126;28;20038;-59
2021/01/23 09:37:01;;;;;;;65.10;6.45;;;16.60;59.90;;;;;;5092210;28;20062;-61
2021/01/23 09:39:26;;;;;;;47.67;5.50;;;16.60;59.60;;;;;;5091152;28;20442;-61
2021/01/23 09:41:52;;;;;;;40.53;5.78;;;16.60;59.30;;;;;;5092008;28;20047;-62
2021/01/23 09:44:17;;;;;;;43.78;5.32;;;16.60;59.40;;;;;;5092002;28;20041;-61
2021/01/23 09:46:43;;;;;;;39.90;5.50;;;16.50;59.60;;;;;;5092002;28;20073;-61
2021/01/23 09:49:08;;;;;;;31.92;6.05;;;16.30;59.70;;;;;;5091920;28;20020;-58
2021/01/23 09:51:34;;;;;;;31.05;5.75;;;16.10;60.10;;;;;;5091670;28;20016;-62
2021/01/23 09:53:59;;;;;;;42.92;6.28;;;16.10;60.30;;;;;;5091925;28;20020;-61
2021/01/23 09:56:25;;;;;;;22.95;4.50;;;15.90;60.80;;;;;;5091815;28;20637;-61
2021/01/23 09:58:50;;;;;;;26.80;4.40;;;15.90;60.60;;;;;;5090411;28;20024;-61
2021/01/23 10:01:17;;;;;;;32.25;5.45;;;15.90;61.20;;;;;;5091480;28;20068;-62
2021/01/23 10:03:43;;;;;;;26.80;5.18;;;15.90;60.20;;;;;;5091637;28;20438;-61
2021/01/23 10:06:08;;;;;;;33.92;5.93;;;15.90;60.50;;;;;;5090142;28;20063;-62
2021/01/23 10:08:34;;;;;;;27.75;5.32;;;15.90;60.10;;;;;;5091617;28;20027;-61
2021/01/23 10:10:59;;;;;;;23.27;4.43;;;15.90;58.60;;;;;;5089398;28;20051;-61
2021/01/23 10:13:25;;;;;;;23.40;5.30;;;15.90;58.80;;;;;;5091480;28;20047;-60
2021/01/23 10:15:50;;;;;;;19.63;4.00;;;15.90;58.30;;;;;;5091416;28;20028;-63
2021/01/23 10:18:16;;;;;;;17.60;4.43;;;15.90;57.10;;;;;;5091497;28;20111;-61
2021/01/23 10:20:41;;;;;;;33.78;4.78;;;16.00;57.80;;;;;;5091417;28;20035;-61
2021/01/23 10:23:07;;;;;;;17.55;4.07;;;16.10;56.60;;;;;;5090012;28;20100;-62
2021/01/23 10:25:32;;;;;;;25.27;5.00;;;16.20;57.30;;;;;;5091296;28;20067;-59
2021/01/23 10:27:58;;;;;;;17.48;4.32;;;16.30;57.10;;;;;;5091313;28;20103;-62
2021/01/23 10:30:24;;;;;;;13.70;4.15;;;16.30;56.30;;;;;;5091187;28;20077;-59
2021/01/23 10:32:50;;;;;;;18.27;4.80;;;16.30;57.20;;;;;;5090867;28;20564;-61
2021/01/23 10:35:16;;;;;;;14.18;4.00;;;16.40;56.40;;;;;;5091006;28;20115;-61
2021/01/23 10:37:42;;;;;;;14.15;4.45;;;16.40;55.30;;;;;;5090069;28;20370;-61
2021/01/23 10:40:08;;;;;;;14.35;4.00;;;16.30;56.20;;;;;;5091035;28;20046;-61
2021/01/23 10:42:34;;;;;;;11.20;3.83;;;16.40;57.30;;;;;;5089416;28;20024;-61
2021/01/23 10:44:59;;;;;;;14.23;4.00;;;16.40;57.00;;;;;;5090932;28;20500;-62
2021/01/23 10:47:25;;;;;;;12.32;4.07;;;16.40;56.80;;;;;;5090942;28;20499;-60
2021/01/23 10:49:50;;;;;;;12.65;3.53;;;16.40;57.20;;;;;;5090883;28;20493;-61
2021/01/23 10:52:16;;;;;;;15.38;3.83;;;16.40;57.60;;;;;;5090652;28;20031;-62
2021/01/23 10:54:41;;;;;;;15.02;4.05;;;16.40;58.10;;;;;;5090866;28;20028;-60
2021/01/23 10:57:07;;;;;;;15.38;4.85;;;16.50;58.30;;;;;;5090787;28;20012;-60
2021/01/23 10:59:33;;;;;;;15.10;4.30;;;16.60;58.30;;;;;;5090825;28;20105;-61
2021/01/23 11:01:59;;;;;;;12.77;4.30;;;16.70;58.40;;;;;;5090511;28;20024;-61
2021/01/23 11:04:25;;;;;;;13.20;4.20;;;16.70;58.40;;;;;;5090526;28;20473;-60
2021/01/23 11:06:50;;;;;;;14.18;4.22;;;16.80;58.70;;;;;;5090597;28;20038;-62
2021/01/23 11:09:16;;;;;;;10.77;3.80;;;16.90;58.70;;;;;;5090640;28;20020;-59
2021/01/23 11:11:41;;;;;;;10.35;3.97;;;16.90;59.10;;;;;;5090396;28;20081;-60
2021/01/23 11:14:07;;;;;;;11.25;3.88;;;17.00;59.20;;;;;;5080816;28;20028;-59
2021/01/23 11:16:32;;;;;;;8.75;3.40;;;17.10;59.10;;;;;;5075776;28;20580;-61
2021/01/23 11:18:59;;;;;;;10.82;3.70;;;17.10;59.20;;;;;;5070022;28;20032;-62
2021/01/23 11:21:25;;;;;;;9.75;3.72;;;17.10;59.80;;;;;;5069841;28;20049;-61
2021/01/23 11:23:50;;;;;;;9.48;3.47;;;17.20;60.00;;;;;;5074149;28;20067;-60
2021/01/23 11:26:16;;;;;;;9.27;3.53;;;17.20;59.50;;;;;;5074035;28;20033;-61
2021/01/23 11:28:42;;;;;;;8.20;2.95;;;17.10;59.10;;;;;;5074137;28;20028;-61
2021/01/23 11:31:07;;;;;;;9.98;3.15;;;17.10;59.50;;;;;;5073906;28;20043;-61
2021/01/23 11:33:33;;;;;;;7.93;2.88;;;17.10;59.70;;;;;;5073949;28;20146;-61
2021/01/23 11:35:59;;;;;;;9.77;3.03;;;17.10;60.40;;;;;;5072656;28;20532;-61
2021/01/23 11:38:24;;;;;;;8.60;2.70;;;17.10;59.50;;;;;;5073962;28;20029;-62
2021/01/23 11:40:50;;;;;;;7.78;2.55;;;17.10;59.30;;;;;;5073847;28;20044;-59
2021/01/23 11:43:16;;;;;;;9.48;4.60;;;17.10;61.60;;;;;;5072390;28;20028;-62
2021/01/23 11:45:42;;;;;;;10.93;4.30;;;17.10;59.80;;;;;;5073704;28;20029;-59
2021/01/23 11:48:08;;;;;;;10.93;3.22;;;17.20;61.00;;;;;;5073633;28;20548;-61
2021/01/23 11:50:34;;;;;;;8.02;3.22;;;17.20;61.70;;;;;;5073737;28;20020;-59
2021/01/23 11:52:59;;;;;;;9.32;3.10;;;17.20;61.20;;;;;;5073344;28;20063;-60
2021/01/23 11:55:25;;;;;;;11.55;3.58;;;17.20;60.90;;;;;;5072246;28;20052;-61
2021/01/23 11:57:50;;;;;;;9.77;4.00;;;17.20;61.20;;;;;;5073638;28;20064;-61
2021/01/23 12:00:16;;;;;;;10.82;5.75;;;17.30;60.70;;;;;;5072290;28;20029;-61
2021/01/23 12:02:42;;;;;;;9.70;3.33;;;17.20;60.30;;;;;;5073084;28;20540;-59
2021/01/23 12:05:08;;;;;;;10.50;3.50;;;17.20;60.70;;;;;;5073232;28;20052;-60
2021/01/23 12:07:34;;;;;;;11.02;3.45;;;17.30;60.60;;;;;;5073363;28;20035;-59
2021/01/23 12:10:00;;;;;;;8.95;3.20;;;17.40;60.50;;;;;;5072062;28;20400;-61
2021/01/23 12:12:26;;;;;;;7.38;2.67;;;17.40;59.60;;;;;;5073136;28;20020;-60
2021/01/23 12:14:51;;;;;;;9.77;3.35;;;17.50;59.60;;;;;;5072994;28;20050;-60
2021/01/23 12:17:17;;;;;;;8.40;2.97;;;17.50;59.50;;;;;;5094775;28;20074;-60
2021/01/23 12:19:42;;;;;;;16.33;3.65;;;17.50;59.00;;;;;;5113866;28;20019;-60
2021/01/23 12:22:11;;;;;;;16.80;3.50;;;17.60;59.10;;;;;;5094551;28;20036;-61
2021/01/23 12:24:37;;;;;;;15.82;3.00;;;17.80;60.20;;;;;;5079726;28;20036;-59
2021/01/23 12:27:03;;;;;;;18.92;4.03;;;17.80;59.70;;;;;;5079116;28;20481;-59
2021/01/23 12:29:29;;;;;;;7.28;3.00;;;17.70;59.60;;;;;;5089408;28;20358;-62
2021/01/23 12:31:57;;;;;;;13.40;3.80;;;17.70;59.50;;;;;;5085731;28;20050;-60
2021/01/23 12:34:23;;;;;;;14.60;3.30;;;17.70;60.90;;;;;;5071674;28;20021;-58
2021/01/23 12:36:49;;;;;;;18.83;3.10;;;17.70;61.50;;;;;;5072756;28;20404;-60
2021/01/23 12:39:14;;;;;;;29.15;4.28;;;17.80;62.40;;;;;;5074325;28;20020;-60
2021/01/23 12:41:40;;;;;;;16.95;3.60;;;17.90;62.40;;;;;;5080453;28;20487;-62
2021/01/23 12:44:05;;;;;;;12.43;3.22;;;18.00;63.10;;;;;;5077511;28;20044;-61
2021/01/23 12:46:31;;;;;;;14.95;3.30;;;18.00;63.90;;;;;;5077793;28;20063;-59